Time;durP1;ratioP1;P1;durP2;ratioP2;P2;SDS_P1;SDS_P2;PMS_P1;PMS_P2;Temp;Humidity;BMP_temperature;BMP_pressure;BME280_temperature;BME280_humidity;BME280_pressure;Samples;Min_cycle;Max_cycle;Signal;HPM_P1;HPM_P2
2021/07/28 00:02:12;;;;;;;2.22;1.70;;;25.90;51.40;;;;;;5055006;28;20029;-61
2021/07/28 00:04:39;;;;;;;1.85;1.75;;;25.90;51.40;;;;;;5054680;28;20037;-61
2021/07/28 00:07:06;;;;;;;2.20;1.95;;;25.80;51.40;;;;;;5054446;28;20108;-61
2021/07/28 00:09:32;;;;;;;2.05;1.85;;;25.80;51.40;;;;;;5054883;28;20341;-62
2021/07/28 00:11:58;;;;;;;1.70;1.60;;;25.80;51.40;;;;;;5054362;28;20048;-62
2021/07/28 00:14:24;;;;;;;2.13;1.92;;;25.80;51.40;;;;;;5054546;28;20045;-63
2021/07/28 00:16:50;;;;;;;2.00;1.70;;;25.80;51.40;;;;;;5034522;28;20119;-62
2021/07/28 00:19:21;;;;;;;2.00;1.73;;;25.80;51.40;;;;;;5055643;28;20120;-63
2021/07/28 00:24:35;;;;;;;2.05;1.85;;;25.80;51.40;;;;;;5053821;28;20029;-62
2021/07/28 00:27:01;;;;;;;1.67;1.48;;;25.80;51.40;;;;;;5054111;28;20041;-63
2021/07/28 00:29:28;;;;;;;2.15;1.67;;;25.80;51.40;;;;;;5055408;28;20505;-62
2021/07/28 00:31:54;;;;;;;2.58;2.15;;;25.80;51.40;;;;;;5036689;28;20052;-62
2021/07/28 00:34:20;;;;;;;2.10;1.90;;;25.80;51.40;;;;;;5054235;28;20037;-62
2021/07/28 00:36:45;;;;;;;2.13;1.92;;;25.80;51.50;;;;;;5036116;28;20407;-61
2021/07/28 00:39:11;;;;;;;1.90;1.70;;;25.80;51.50;;;;;;5053734;28;20085;-62
2021/07/28 00:41:44;;;;;;;2.10;1.90;;;25.80;51.50;;;;;;5054744;28;20036;-62
2021/07/28 00:44:11;;;;;;;1.95;1.67;;;25.80;51.50;;;;;;5052493;28;20472;-61
2021/07/28 00:46:37;;;;;;;2.25;2.05;;;25.70;51.40;;;;;;5053951;28;20025;-63
2021/07/28 00:49:03;;;;;;;2.83;1.80;;;25.70;51.40;;;;;;5054536;28;20029;-62
2021/07/28 00:51:30;;;;;;;2.50;2.03;;;25.70;51.40;;;;;;5054183;28;20029;-62
2021/07/28 00:53:57;;;;;;;2.60;1.95;;;25.70;51.40;;;;;;5054253;28;20033;-62
2021/07/28 00:56:25;;;;;;;2.83;2.00;;;25.70;51.40;;;;;;5053246;28;20091;-61
2021/07/28 00:58:50;;;;;;;2.30;2.08;;;25.70;51.40;;;;;;5051853;28;20039;-62
2021/07/28 01:01:16;;;;;;;2.10;1.90;;;25.70;51.40;;;;;;5053348;28;20033;-64
2021/07/28 01:03:42;;;;;;;2.00;1.80;;;25.70;51.40;;;;;;5035778;28;20086;-60
2021/07/28 01:06:09;;;;;;;1.90;1.70;;;25.70;51.40;;;;;;5053334;28;20017;-62
2021/07/28 01:08:36;;;;;;;2.25;1.92;;;25.70;51.40;;;;;;5054049;28;20037;-61
2021/07/28 01:11:04;;;;;;;2.35;2.03;;;25.70;51.40;;;;;;5053069;28;20067;-61
2021/07/28 01:13:31;;;;;;;2.53;2.33;;;25.70;51.40;;;;;;5051491;28;20365;-63
2021/07/28 01:16:11;;;;;;;2.45;1.98;;;25.70;51.40;;;;;;5052484;28;20094;-62
2021/07/28 01:18:41;;;;;;;2.63;1.88;;;25.70;51.30;;;;;;5053412;28;20055;-62
2021/07/28 01:21:11;;;;;;;2.13;1.90;;;25.70;51.40;;;;;;5052005;28;20029;-64
2021/07/28 01:23:38;;;;;;;2.47;2.03;;;25.60;51.30;;;;;;5050607;28;20075;-61
2021/07/28 01:26:06;;;;;;;2.53;1.98;;;25.60;51.30;;;;;;5052722;28;20086;-63
2021/07/28 01:28:33;;;;;;;2.35;2.10;;;25.60;51.30;;;;;;5051733;28;20041;-62
2021/07/28 01:31:06;;;;;;;1.92;1.73;;;25.60;51.30;;;;;;5053473;28;20122;-61
2021/07/28 01:33:35;;;;;;;2.22;1.98;;;25.60;51.30;;;;;;5049884;28;20037;-62
2021/07/28 01:36:04;;;;;;;2.50;2.17;;;25.60;51.30;;;;;;5052666;28;20047;-62
2021/07/28 01:38:31;;;;;;;2.38;1.92;;;25.60;51.30;;;;;;5051416;28;20498;-61
2021/07/28 01:41:02;;;;;;;3.67;2.10;;;25.60;51.30;;;;;;5053297;28;20028;-61
2021/07/28 01:43:29;;;;;;;1.80;1.70;;;25.60;51.30;;;;;;5052539;28;20048;-62
2021/07/28 01:45:56;;;;;;;2.85;2.22;;;25.60;51.30;;;;;;5052546;28;20024;-61
2021/07/28 01:48:22;;;;;;;2.83;2.35;;;25.60;51.40;;;;;;5053741;28;20025;-62
2021/07/28 01:50:48;;;;;;;3.25;2.30;;;25.60;51.40;;;;;;5053133;28;20033;-61
2021/07/28 01:53:14;;;;;;;2.20;2.00;;;25.60;51.40;;;;;;5053507;28;20044;-62
2021/07/28 01:55:41;;;;;;;2.53;2.03;;;25.60;51.40;;;;;;5053263;28;20036;-62
2021/07/28 01:58:08;;;;;;;2.40;2.20;;;25.50;51.30;;;;;;5052815;28;20483;-61
2021/07/28 02:00:34;;;;;;;2.58;2.38;;;25.50;51.30;;;;;;5053142;28;20032;-62
2021/07/28 02:03:03;;;;;;;2.05;1.90;;;25.50;51.30;;;;;;5051316;28;20037;-62
2021/07/28 02:05:36;;;;;;;2.03;1.85;;;25.50;51.30;;;;;;5053004;28;20116;-61
2021/07/28 02:08:05;;;;;;;2.50;2.28;;;25.60;51.30;;;;;;5052363;28;20032;-62
2021/07/28 02:10:32;;;;;;;2.63;2.05;;;25.50;51.30;;;;;;5050372;28;20587;-62
2021/07/28 02:12:59;;;;;;;2.13;1.92;;;25.50;51.30;;;;;;5051952;28;20044;-62
2021/07/28 02:15:25;;;;;;;2.15;1.75;;;25.50;51.30;;;;;;5052674;28;20114;-61
2021/07/28 02:17:54;;;;;;;2.67;2.10;;;25.50;51.40;;;;;;5034886;28;20444;-61
2021/07/28 02:20:21;;;;;;;2.58;1.98;;;25.50;51.40;;;;;;5034740;28;20349;-61
2021/07/28 02:22:47;;;;;;;2.60;2.20;;;25.50;51.40;;;;;;5052088;28;20021;-61
2021/07/28 02:25:14;;;;;;;2.28;1.85;;;25.50;51.40;;;;;;5052220;28;20029;-61
2021/07/28 02:27:41;;;;;;;3.10;2.17;;;25.40;51.40;;;;;;5052446;28;20158;-60
2021/07/28 02:30:08;;;;;;;2.50;2.30;;;25.40;51.40;;;;;;5052527;28;20108;-61
2021/07/28 02:32:35;;;;;;;2.20;2.00;;;25.40;51.50;;;;;;5052332;28;20040;-60
2021/07/28 02:35:00;;;;;;;2.83;2.35;;;25.40;51.50;;;;;;5051801;28;20132;-62
2021/07/28 02:37:27;;;;;;;2.15;1.95;;;25.40;51.50;;;;;;5049391;28;20160;-62
2021/07/28 02:39:52;;;;;;;2.28;2.08;;;25.40;51.60;;;;;;5050449;28;20032;-61
2021/07/28 02:42:18;;;;;;;2.53;2.33;;;25.40;51.60;;;;;;5052537;28;20025;-61
2021/07/28 02:44:44;;;;;;;2.35;2.15;;;25.40;51.60;;;;;;5052387;28;20352;-60
2021/07/28 02:47:11;;;;;;;2.92;2.30;;;25.40;51.60;;;;;;5053141;28;20072;-61
2021/07/28 02:49:37;;;;;;;2.45;2.17;;;25.40;51.60;;;;;;5052174;28;20056;-59
2021/07/28 02:52:03;;;;;;;2.53;2.22;;;25.40;51.70;;;;;;5051955;28;20086;-61
2021/07/28 02:54:29;;;;;;;2.03;1.83;;;25.40;51.70;;;;;;5051630;28;20464;-61
2021/07/28 02:56:55;;;;;;;2.40;2.20;;;25.40;51.70;;;;;;5051662;28;20025;-61
2021/07/28 02:59:21;;;;;;;3.08;2.35;;;25.40;51.70;;;;;;5052742;28;20107;-61
2021/07/28 03:01:49;;;;;;;2.15;1.95;;;25.30;51.60;;;;;;5051582;28;20644;-61
2021/07/28 03:04:18;;;;;;;2.10;1.90;;;25.30;51.70;;;;;;5051553;28;20040;-61
2021/07/28 03:06:44;;;;;;;2.60;2.00;;;25.30;51.70;;;;;;5052215;28;20040;-62
2021/07/28 03:09:10;;;;;;;2.45;2.15;;;25.30;51.70;;;;;;5051078;28;20037;-61
2021/07/28 03:11:36;;;;;;;2.65;1.95;;;25.40;51.80;;;;;;5051408;28;20345;-60
2021/07/28 03:14:01;;;;;;;2.17;1.98;;;25.30;51.70;;;;;;5051698;28;20048;-60
2021/07/28 03:16:27;;;;;;;2.63;2.33;;;25.30;51.70;;;;;;5051903;28;20051;-63
2021/07/28 03:18:53;;;;;;;2.10;1.90;;;25.30;51.80;;;;;;5035046;28;20028;-61
2021/07/28 03:21:19;;;;;;;2.33;2.13;;;25.30;52.40;;;;;;5054112;28;20345;-61
2021/07/28 03:23:44;;;;;;;2.50;2.30;;;25.30;51.80;;;;;;5037982;28;20029;-61
2021/07/28 03:26:10;;;;;;;2.47;2.17;;;25.30;51.80;;;;;;5038388;28;20465;-60
2021/07/28 03:28:36;;;;;;;3.10;2.40;;;25.30;51.80;;;;;;5054942;28;20306;-62
2021/07/28 03:31:02;;;;;;;2.60;2.35;;;25.30;51.90;;;;;;5055431;28;21590;-60
2021/07/28 03:33:28;;;;;;;2.50;2.30;;;25.30;51.90;;;;;;5055586;28;20024;-60
2021/07/28 03:35:53;;;;;;;3.55;2.10;;;25.30;51.90;;;;;;5055250;28;20035;-61
2021/07/28 03:38:19;;;;;;;2.40;2.20;;;25.30;51.90;;;;;;5052863;28;20029;-61
2021/07/28 03:40:45;;;;;;;2.40;2.20;;;25.30;52.50;;;;;;5055350;28;20090;-61
2021/07/28 03:43:11;;;;;;;2.30;2.10;;;25.30;51.90;;;;;;5055054;28;20028;-60
2021/07/28 03:45:37;;;;;;;2.95;2.25;;;25.30;52.00;;;;;;5056250;28;20029;-59
2021/07/28 03:48:03;;;;;;;2.42;2.22;;;25.30;52.00;;;;;;5054842;28;20118;-61
2021/07/28 03:50:28;;;;;;;2.63;2.05;;;25.30;52.00;;;;;;5055186;28;20025;-61
2021/07/28 03:52:59;;;;;;;2.67;2.45;;;25.30;52.00;;;;;;5054463;28;20047;-62
2021/07/28 03:55:25;;;;;;;2.80;2.15;;;25.30;52.00;;;;;;5055389;28;20041;-60
2021/07/28 03:57:51;;;;;;;2.72;2.42;;;25.30;52.00;;;;;;5055008;28;20386;-59
2021/07/28 04:00:17;;;;;;;2.50;2.30;;;25.20;51.90;;;;;;5055356;28;20055;-61
2021/07/28 04:02:43;;;;;;;2.75;2.25;;;25.20;51.90;;;;;;5055200;28;20021;-62
2021/07/28 04:05:09;;;;;;;2.30;2.10;;;25.20;51.90;;;;;;5054836;28;20044;-59
2021/07/28 04:07:35;;;;;;;2.85;2.50;;;25.20;51.90;;;;;;5054548;28;20029;-60
2021/07/28 04:10:01;;;;;;;2.50;2.30;;;25.20;51.90;;;;;;5054306;28;20415;-61
2021/07/28 04:12:27;;;;;;;2.78;2.38;;;25.20;51.90;;;;;;5054860;28;20462;-62
2021/07/28 04:14:53;;;;;;;2.50;2.30;;;25.30;52.00;;;;;;5037705;28;20059;-60
2021/07/28 04:17:19;;;;;;;2.70;2.50;;;25.20;51.90;;;;;;5054299;28;20445;-60
2021/07/28 04:19:49;;;;;;;2.20;2.00;;;25.20;52.50;;;;;;5054272;28;20474;-60
2021/07/28 04:22:20;;;;;;;2.17;1.95;;;25.20;52.00;;;;;;5054146;28;20433;-61
2021/07/28 04:24:46;;;;;;;2.45;2.25;;;25.20;51.90;;;;;;5052679;28;20025;-59
2021/07/28 04:27:12;;;;;;;2.42;2.22;;;25.20;52.00;;;;;;5054438;28;20421;-60
2021/07/28 04:29:38;;;;;;;3.17;2.13;;;25.20;52.00;;;;;;5054076;28;20048;-59
2021/07/28 04:32:05;;;;;;;2.63;2.40;;;25.20;52.00;;;;;;5052991;28;20433;-60
2021/07/28 04:34:30;;;;;;;2.85;2.17;;;25.20;52.00;;;;;;5055089;28;20033;-61
2021/07/28 04:36:56;;;;;;;2.20;2.00;;;25.20;52.00;;;;;;5035731;28;20052;-60
2021/07/28 04:39:22;;;;;;;2.30;2.03;;;25.20;52.00;;;;;;5053381;28;20032;-61
2021/07/28 04:41:48;;;;;;;2.13;1.92;;;25.10;51.90;;;;;;5053961;28;20031;-60
2021/07/28 04:44:13;;;;;;;2.75;2.22;;;25.10;52.00;;;;;;5054379;28;20064;-60
2021/07/28 04:46:39;;;;;;;2.30;2.10;;;25.10;52.00;;;;;;5036438;28;20440;-61
2021/07/28 04:49:05;;;;;;;2.30;2.10;;;25.10;52.00;;;;;;5054317;28;20349;-61
2021/07/28 04:51:30;;;;;;;2.10;1.90;;;25.10;52.00;;;;;;5053639;28;20036;-61
2021/07/28 04:53:56;;;;;;;2.72;2.25;;;25.10;52.10;;;;;;5053586;28;20029;-60
2021/07/28 04:56:22;;;;;;;2.95;2.60;;;25.10;52.10;;;;;;5052716;28;20033;-61
2021/07/28 04:58:48;;;;;;;2.80;2.30;;;25.20;52.20;;;;;;5038137;28;20043;-59
2021/07/28 05:01:14;;;;;;;2.38;2.10;;;25.10;52.10;;;;;;5052970;28;20342;-60
2021/07/28 05:03:40;;;;;;;2.33;2.13;;;25.10;52.10;;;;;;5053350;28;20322;-60
2021/07/28 05:06:05;;;;;;;2.22;2.03;;;25.10;52.20;;;;;;5036460;28;20453;-60
2021/07/28 05:08:31;;;;;;;2.53;1.95;;;25.10;52.20;;;;;;5053814;28;20043;-59
2021/07/28 05:10:57;;;;;;;2.08;1.88;;;25.10;52.20;;;;;;5053785;28;20044;-60
2021/07/28 05:13:23;;;;;;;3.25;2.30;;;25.10;52.20;;;;;;5053677;28;20100;-60
2021/07/28 05:15:50;;;;;;;2.13;1.92;;;25.10;52.20;;;;;;5054191;28;20025;-60
2021/07/28 05:18:16;;;;;;;2.35;2.03;;;25.10;52.30;;;;;;5053724;28;20469;-60
2021/07/28 05:20:42;;;;;;;3.13;2.25;;;25.10;52.30;;;;;;5053469;28;20345;-60
2021/07/28 05:23:08;;;;;;;2.25;2.05;;;25.10;52.30;;;;;;5035940;28;20035;-61
2021/07/28 05:25:34;;;;;;;2.58;2.33;;;25.10;52.40;;;;;;5053029;28;20037;-60
2021/07/28 05:28:00;;;;;;;2.25;2.05;;;25.10;52.40;;;;;;5036262;28;20168;-59
2021/07/28 05:30:27;;;;;;;2.67;2.30;;;25.10;52.40;;;;;;5053038;28;20025;-60
2021/07/28 05:32:53;;;;;;;2.38;2.17;;;25.10;52.40;;;;;;5053582;28;20033;-61
2021/07/28 05:35:19;;;;;;;2.67;2.15;;;25.10;52.50;;;;;;5052944;28;20436;-61
2021/07/28 05:37:45;;;;;;;2.38;2.13;;;25.10;52.50;;;;;;5053274;28;20044;-60
2021/07/28 05:40:11;;;;;;;3.25;2.45;;;25.10;52.50;;;;;;5053104;28;20032;-60
2021/07/28 05:42:37;;;;;;;2.10;1.88;;;25.10;52.50;;;;;;5053500;28;20036;-60
2021/07/28 05:45:03;;;;;;;2.42;2.17;;;25.10;52.60;;;;;;5053461;28;20067;-61
2021/07/28 05:47:29;;;;;;;3.60;2.20;;;25.10;52.60;;;;;;5053842;28;20041;-60
2021/07/28 05:49:55;;;;;;;2.42;2.20;;;25.10;52.70;;;;;;5052678;28;20404;-60
2021/07/28 05:52:21;;;;;;;2.67;2.47;;;25.10;52.70;;;;;;5035992;28;20440;-60
2021/07/28 05:54:46;;;;;;;2.88;2.33;;;25.10;52.70;;;;;;5053752;28;20078;-60
2021/07/28 05:57:13;;;;;;;2.22;2.03;;;25.10;52.70;;;;;;5035537;28;20739;-60
2021/07/28 05:59:38;;;;;;;2.33;2.00;;;25.10;52.80;;;;;;5053068;28;20064;-61
2021/07/28 06:02:05;;;;;;;2.70;2.40;;;25.10;52.80;;;;;;5052452;28;20069;-60
2021/07/28 06:04:30;;;;;;;3.50;2.17;;;25.10;52.80;;;;;;5050160;28;20028;-61
2021/07/28 06:06:56;;;;;;;2.30;1.90;;;25.10;52.80;;;;;;5052519;28;20431;-62
2021/07/28 06:09:22;;;;;;;3.08;2.55;;;25.10;52.80;;;;;;5034122;28;20083;-60
2021/07/28 06:11:48;;;;;;;2.10;1.90;;;25.10;52.90;;;;;;5053040;28;20063;-60
2021/07/28 06:14:13;;;;;;;2.72;2.40;;;25.10;52.90;;;;;;5052405;28;20102;-61
2021/07/28 06:16:39;;;;;;;2.50;2.30;;;25.10;52.90;;;;;;5052767;28;20025;-60
2021/07/28 06:19:05;;;;;;;2.50;2.30;;;25.10;53.00;;;;;;5052242;28;20029;-60
2021/07/28 06:21:31;;;;;;;2.22;2.00;;;25.10;53.00;;;;;;5053087;28;20025;-59
2021/07/28 06:23:59;;;;;;;2.53;2.28;;;25.10;53.00;;;;;;5051761;28;20399;-62
2021/07/28 06:26:26;;;;;;;2.13;1.92;;;25.10;53.10;;;;;;5034229;28;20123;-62
2021/07/28 06:28:51;;;;;;;2.17;1.98;;;25.10;53.10;;;;;;5052496;28;20032;-61
2021/07/28 06:31:17;;;;;;;2.38;2.13;;;25.10;53.10;;;;;;5052630;28;20033;-62
2021/07/28 06:33:43;;;;;;;2.65;2.30;;;25.10;53.10;;;;;;5033876;28;20033;-61
2021/07/28 06:36:09;;;;;;;2.95;2.38;;;25.10;53.20;;;;;;5052382;28;20028;-62
2021/07/28 06:38:35;;;;;;;2.60;2.25;;;25.10;53.20;;;;;;5050127;28;20040;-61
2021/07/28 06:41:00;;;;;;;2.65;2.42;;;25.10;53.30;;;;;;5032908;28;20040;-62
2021/07/28 06:43:26;;;;;;;2.63;2.38;;;25.10;53.20;;;;;;5050564;28;20098;-63
2021/07/28 06:45:59;;;;;;;2.53;2.33;;;25.10;53.30;;;;;;5048303;28;20386;-61
2021/07/28 06:48:25;;;;;;;2.60;2.40;;;25.10;53.30;;;;;;5050855;28;20037;-60
2021/07/28 06:50:52;;;;;;;2.40;2.20;;;25.10;53.30;;;;;;5052679;28;20097;-61
2021/07/28 06:53:23;;;;;;;3.22;2.50;;;25.10;53.40;;;;;;5049943;28;20021;-60
2021/07/28 06:55:55;;;;;;;2.95;2.65;;;25.10;53.40;;;;;;5053405;28;20344;-61
2021/07/28 06:58:20;;;;;;;2.83;2.42;;;25.10;53.40;;;;;;5053562;28;20043;-60
2021/07/28 07:00:47;;;;;;;2.85;2.47;;;25.10;53.40;;;;;;5056602;28;20061;-61
2021/07/28 07:03:13;;;;;;;2.70;2.50;;;25.10;53.40;;;;;;5055013;28;20122;-63
2021/07/28 07:05:38;;;;;;;2.88;2.33;;;25.20;53.50;;;;;;5054957;28;20079;-61
2021/07/28 07:08:05;;;;;;;2.38;2.17;;;25.10;53.40;;;;;;5053599;28;20379;-60
2021/07/28 07:10:30;;;;;;;2.47;2.28;;;25.20;53.50;;;;;;5037939;28;20473;-62
2021/07/28 07:12:56;;;;;;;2.28;2.08;;;25.20;53.50;;;;;;5055935;28;20025;-62
2021/07/28 07:15:22;;;;;;;2.50;2.30;;;25.20;53.50;;;;;;5055097;28;20558;-62
2021/07/28 07:17:52;;;;;;;2.47;2.15;;;25.20;53.50;;;;;;5055101;28;20017;-62
2021/07/28 07:20:18;;;;;;;2.33;2.13;;;25.20;53.40;;;;;;5055866;28;20033;-60
2021/07/28 07:22:43;;;;;;;2.42;2.22;;;25.20;53.40;;;;;;5055311;28;20471;-61
2021/07/28 07:25:10;;;;;;;2.83;2.50;;;25.20;53.40;;;;;;5037280;28;20090;-60
2021/07/28 07:27:37;;;;;;;2.92;2.53;;;25.20;53.30;;;;;;5054614;28;20021;-62
2021/07/28 07:30:04;;;;;;;2.53;2.22;;;25.20;53.30;;;;;;5053210;28;20074;-62
2021/07/28 07:32:30;;;;;;;2.90;2.00;;;25.30;53.30;;;;;;5056704;28;20029;-61
2021/07/28 07:34:58;;;;;;;2.78;2.30;;;25.30;53.20;;;;;;5056398;28;20127;-61
2021/07/28 07:37:23;;;;;;;2.20;2.00;;;25.30;53.20;;;;;;5031985;28;20416;-62
2021/07/28 07:39:49;;;;;;;2.25;2.05;;;25.30;53.10;;;;;;5049656;28;20080;-61
2021/07/28 07:42:15;;;;;;;1.85;1.70;;;25.30;53.10;;;;;;5049035;28;20029;-61
2021/07/28 07:44:43;;;;;;;2.13;1.92;;;25.30;53.10;;;;;;5051736;28;20082;-62
2021/07/28 07:47:09;;;;;;;2.10;1.80;;;25.30;53.00;;;;;;5049046;28;20031;-61
2021/07/28 07:49:35;;;;;;;2.08;1.88;;;25.30;53.00;;;;;;5054765;28;20132;-61
2021/07/28 07:52:01;;;;;;;2.63;2.03;;;25.30;52.90;;;;;;5036741;28;20477;-61
2021/07/28 07:54:27;;;;;;;2.47;1.90;;;25.30;52.90;;;;;;5053417;28;20476;-62
2021/07/28 07:56:53;;;;;;;2.70;2.08;;;25.30;52.80;;;;;;5054620;28;20112;-61
2021/07/28 07:59:19;;;;;;;1.90;1.77;;;25.30;52.70;;;;;;5054935;28;20043;-62
2021/07/28 08:01:45;;;;;;;1.70;1.52;;;25.30;52.70;;;;;;5051458;28;20078;-62
2021/07/28 08:04:10;;;;;;;1.60;1.50;;;25.30;52.50;;;;;;5054111;28;20037;-61
2021/07/28 08:06:36;;;;;;;1.90;1.63;;;25.30;52.50;;;;;;5054039;28;20112;-61
2021/07/28 08:09:02;;;;;;;1.60;1.45;;;25.40;52.40;;;;;;5054127;28;20029;-62
2021/07/28 08:11:28;;;;;;;1.70;1.60;;;25.40;52.30;;;;;;5053299;28;20091;-62
2021/07/28 08:14:00;;;;;;;1.73;1.52;;;25.40;52.20;;;;;;5053363;28;20464;-63
2021/07/28 08:16:27;;;;;;;2.88;1.45;;;25.40;52.00;;;;;;5028752;28;20033;-60
2021/07/28 08:18:53;;;;;;;1.95;1.40;;;25.40;52.00;;;;;;5047381;28;20086;-60
2021/07/28 08:21:19;;;;;;;2.00;1.80;;;25.40;51.90;;;;;;5055162;28;20025;-61
2021/07/28 08:23:47;;;;;;;2.53;1.70;;;25.40;51.80;;;;;;5035865;28;20025;-61
2021/07/28 08:26:13;;;;;;;2.03;1.70;;;25.40;51.70;;;;;;5054946;28;20025;-61
2021/07/28 08:28:41;;;;;;;1.85;1.45;;;25.40;51.60;;;;;;5054512;28;20021;-62
2021/07/28 08:31:07;;;;;;;2.40;1.65;;;25.40;51.50;;;;;;5053665;28;20388;-61
2021/07/28 08:33:33;;;;;;;2.08;1.70;;;25.40;51.50;;;;;;5054291;28;20090;-62
2021/07/28 08:36:01;;;;;;;1.50;1.35;;;25.40;51.40;;;;;;5052047;28;20035;-60
2021/07/28 08:38:27;;;;;;;1.50;1.40;;;25.40;51.30;;;;;;5054540;28;20033;-60
2021/07/28 08:40:56;;;;;;;1.48;1.38;;;25.40;51.30;;;;;;5054653;28;20025;-61
2021/07/28 08:43:26;;;;;;;1.75;1.48;;;25.40;51.20;;;;;;5054026;28;20352;-60
2021/07/28 08:45:55;;;;;;;1.38;1.23;;;25.40;51.10;;;;;;5053227;28;20028;-62
2021/07/28 08:48:24;;;;;;;1.58;1.20;;;25.50;51.10;;;;;;5055074;28;20357;-60
2021/07/28 08:50:55;;;;;;;2.13;1.42;;;25.40;50.90;;;;;;5054289;28;20016;-61
2021/07/28 08:53:24;;;;;;;1.67;1.30;;;25.40;50.80;;;;;;5053957;28;20135;-62
2021/07/28 08:55:53;;;;;;;1.80;1.30;;;25.40;50.70;;;;;;5052830;28;20033;-62
2021/07/28 08:58:22;;;;;;;1.83;1.58;;;25.50;50.70;;;;;;5054584;28;20814;-63
2021/07/28 09:00:48;;;;;;;1.70;1.33;;;25.50;50.60;;;;;;5053787;28;20025;-61
2021/07/28 09:03:15;;;;;;;2.20;1.60;;;25.50;50.60;;;;;;5035786;28;20495;-62
2021/07/28 09:05:43;;;;;;;2.22;1.40;;;25.50;50.50;;;;;;5036512;28;20043;-62
2021/07/28 09:08:29;;;;;;;1.33;1.20;;;25.50;50.40;;;;;;5053545;28;20035;-62
2021/07/28 09:10:55;;;;;;;2.00;1.20;;;25.50;50.20;;;;;;5034314;28;20059;-62
2021/07/28 09:13:38;;;;;;;1.10;1.00;;;25.50;50.20;;;;;;5036687;28;20021;-60
2021/07/28 09:16:07;;;;;;;1.38;1.20;;;25.50;50.00;;;;;;5036346;28;20056;-61
2021/07/28 09:18:45;;;;;;;1.52;1.02;;;25.50;49.90;;;;;;5053682;28;20310;-57
2021/07/28 09:21:19;;;;;;;1.20;1.05;;;25.50;49.80;;;;;;5051203;28;20033;-63
2021/07/28 09:23:47;;;;;;;1.50;1.10;;;25.60;49.80;;;;;;5053507;28;20029;-62
2021/07/28 09:26:32;;;;;;;1.13;1.02;;;25.50;49.70;;;;;;5051505;28;20066;-62
2021/07/28 09:29:15;;;;;;;2.40;1.40;;;25.50;49.60;;;;;;5050479;28;20064;-62
2021/07/28 09:31:43;;;;;;;1.30;1.20;;;25.50;49.70;;;;;;5052611;28;20075;-62
2021/07/28 09:34:19;;;;;;;1.50;1.10;;;25.50;49.80;;;;;;5034834;28;20037;-62
2021/07/28 09:36:49;;;;;;;2.05;1.60;;;25.60;49.90;;;;;;5053028;28;20052;-63
2021/07/28 09:39:27;;;;;;;1.60;1.50;;;25.60;49.90;;;;;;5052277;28;20043;-62
2021/07/28 09:41:55;;;;;;;1.60;1.50;;;25.60;49.90;;;;;;5053222;28;20128;-63
2021/07/28 09:44:32;;;;;;;1.67;1.42;;;25.60;50.00;;;;;;5034456;28;20040;-61
2021/07/28 09:47:22;;;;;;;3.08;1.40;;;25.60;50.00;;;;;;5053479;28;20025;-63
2021/07/28 09:50:01;;;;;;;1.50;1.40;;;25.60;49.90;;;;;;5035943;28;20051;-62
2021/07/28 09:52:35;;;;;;;1.90;1.70;;;25.60;50.00;;;;;;5051965;28;20341;-61
2021/07/28 09:55:29;;;;;;;1.90;1.50;;;25.60;50.00;;;;;;5051158;28;20527;-62
2021/07/28 09:57:59;;;;;;;2.50;1.58;;;25.60;50.00;;;;;;5048977;28;20103;-63
2021/07/28 10:00:27;;;;;;;2.05;1.52;;;25.60;50.00;;;;;;5050012;28;20455;-61
2021/07/28 10:02:55;;;;;;;1.42;1.33;;;25.60;50.00;;;;;;5047688;28;20021;-62
2021/07/28 10:05:22;;;;;;;1.85;1.50;;;25.60;50.00;;;;;;5047071;28;20040;-61
2021/07/28 10:07:50;;;;;;;1.67;1.42;;;25.60;50.00;;;;;;5048359;28;20071;-61
2021/07/28 10:10:19;;;;;;;2.88;1.60;;;25.60;50.00;;;;;;5051098;28;20060;-61
2021/07/28 10:12:48;;;;;;;1.50;1.40;;;25.60;50.00;;;;;;5049056;28;20040;-61
2021/07/28 10:15:15;;;;;;;2.08;1.70;;;25.60;50.00;;;;;;5051031;28;20069;-60
2021/07/28 10:17:42;;;;;;;2.85;1.73;;;25.60;50.00;;;;;;5050517;28;20029;-61
2021/07/28 10:20:10;;;;;;;1.58;1.48;;;25.70;50.00;;;;;;5050235;28;20031;-61
2021/07/28 10:22:37;;;;;;;2.13;1.48;;;25.60;50.00;;;;;;5051387;28;20043;-61
2021/07/28 10:25:13;;;;;;;1.95;1.27;;;25.70;50.10;;;;;;5049057;28;20453;-60
2021/07/28 10:27:48;;;;;;;1.30;1.20;;;25.70;50.20;;;;;;5048354;28;20051;-58
2021/07/28 10:30:15;;;;;;;1.55;1.15;;;25.70;50.30;;;;;;5050444;28;20123;-62
2021/07/28 10:32:45;;;;;;;2.08;1.25;;;25.80;50.50;;;;;;5051253;28;20472;-63
2021/07/28 10:35:17;;;;;;;1.63;1.10;;;25.80;50.40;;;;;;5049282;28;20473;-66
2021/07/28 10:37:43;;;;;;;1.98;1.33;;;25.90;50.40;;;;;;5049219;28;20029;-64
2021/07/28 10:40:24;;;;;;;1.52;1.20;;;25.90;50.40;;;;;;5052452;28;20034;-63
2021/07/28 10:42:50;;;;;;;1.98;1.00;;;26.00;50.40;;;;;;5042121;28;20040;-63
2021/07/28 10:45:19;;;;;;;1.05;0.95;;;26.00;50.40;;;;;;5050749;28;20072;-61
2021/07/28 10:47:50;;;;;;;1.67;1.30;;;26.00;50.30;;;;;;5051403;28;20024;-63
2021/07/28 10:50:25;;;;;;;1.05;0.85;;;26.10;50.30;;;;;;5030841;28;20028;-63
2021/07/28 10:52:58;;;;;;;1.77;0.85;;;26.10;50.30;;;;;;5050011;28;20021;-62
2021/07/28 10:55:32;;;;;;;1.70;0.90;;;26.20;50.30;;;;;;5051506;28;20466;-61
2021/07/28 10:58:00;;;;;;;;;;;26.30;50.40;;;;;;5050179;28;20513;-61
2021/07/28 11:00:36;;;;;;;0.93;0.90;;;26.20;50.30;;;;;;5049856;28;19915;-60
2021/07/28 11:03:04;;;;;;;2.42;0.70;;;26.30;50.30;;;;;;5048835;28;20443;-62
2021/07/28 11:05:42;;;;;;;2.50;0.80;;;26.30;50.30;;;;;;5049495;28;20025;-63
2021/07/28 11:08:08;;;;;;;3.15;1.05;;;26.40;50.20;;;;;;5049249;28;20527;-64
2021/07/28 11:10:52;;;;;;;1.10;1.00;;;26.40;50.10;;;;;;5050770;28;20045;-62
2021/07/28 11:13:22;;;;;;;1.45;1.00;;;26.40;50.00;;;;;;5049991;28;20124;-58
2021/07/28 11:16:05;;;;;;;1.10;1.00;;;26.50;50.00;;;;;;5050537;28;20075;-57
2021/07/28 11:18:34;;;;;;;1.85;0.90;;;26.50;49.80;;;;;;5045540;28;20083;-61
2021/07/28 11:21:21;;;;;;;1.10;0.85;;;26.50;49.70;;;;;;5050921;28;20032;-65
2021/07/28 11:23:49;;;;;;;1.00;0.80;;;26.60;49.50;;;;;;5042900;28;20033;-62
2021/07/28 11:26:30;;;;;;;1.10;0.80;;;26.60;49.50;;;;;;5048097;28;20037;-61
2021/07/28 11:28:58;;;;;;;1.85;0.95;;;26.60;49.10;;;;;;5051108;28;20110;-61
2021/07/28 11:31:33;;;;;;;0.80;0.80;;;26.60;49.00;;;;;;5050056;28;20044;-62
2021/07/28 11:34:06;;;;;;;0.93;0.70;;;26.60;48.80;;;;;;5051069;28;20040;-63
2021/07/28 11:36:35;;;;;;;0.88;0.60;;;26.70;48.70;;;;;;5032026;28;20452;-61
2021/07/28 11:39:12;;;;;;;1.27;0.90;;;26.70;48.40;;;;;;5033698;28;20021;-61
2021/07/28 11:41:38;;;;;;;0.90;0.70;;;26.70;48.10;;;;;;5050509;28;20124;-62
2021/07/28 11:44:05;;;;;;;1.05;0.80;;;26.70;48.10;;;;;;5054766;28;20021;-59
2021/07/28 11:46:31;;;;;;;1.10;0.80;;;26.70;48.10;;;;;;5054536;28;20329;-60
2021/07/28 11:49:00;;;;;;;1.15;0.95;;;26.80;48.10;;;;;;5054981;28;20513;-62
2021/07/28 11:51:31;;;;;;;1.27;0.90;;;26.70;48.00;;;;;;5054530;28;20045;-61
2021/07/28 11:54:12;;;;;;;2.25;0.90;;;26.80;47.90;;;;;;5053299;28;20108;-61
2021/07/28 11:56:45;;;;;;;1.10;0.80;;;26.80;47.90;;;;;;5036067;28;20640;-61
2021/07/28 11:59:13;;;;;;;1.48;0.75;;;26.80;47.90;;;;;;5053737;28;20021;-63
2021/07/28 12:01:50;;;;;;;0.85;0.80;;;26.80;47.80;;;;;;5033125;28;20352;-63
2021/07/28 12:04:22;;;;;;;1.67;0.60;;;26.80;47.60;;;;;;5051460;28;20100;-62
2021/07/28 12:06:48;;;;;;;1.98;0.77;;;26.80;47.50;;;;;;5053350;28;20029;-61
2021/07/28 12:09:22;;;;;;;0.88;0.68;;;26.80;47.50;;;;;;5051610;28;20048;-67
2021/07/28 12:11:52;;;;;;;1.67;0.85;;;26.90;47.40;;;;;;5051543;28;20033;-64
2021/07/28 12:14:30;;;;;;;0.45;0.45;;;26.90;47.30;;;;;;5053756;28;20094;-60
2021/07/28 12:16:59;;;;;;;1.08;0.80;;;26.90;47.10;;;;;;5052377;28;20429;-64
2021/07/28 12:19:33;;;;;;;0.70;0.60;;;26.90;47.10;;;;;;5052550;28;20036;-62
2021/07/28 12:22:06;;;;;;;0.88;0.63;;;26.90;47.00;;;;;;5051196;28;20017;-63
2021/07/28 12:24:50;;;;;;;3.83;0.80;;;27.00;47.00;;;;;;5050781;28;20036;-63
2021/07/28 12:27:24;;;;;;;0.88;0.60;;;27.00;47.50;;;;;;5051980;28;20037;-60
2021/07/28 12:30:04;;;;;;;1.77;0.50;;;27.00;46.90;;;;;;5053511;28;20061;-63
2021/07/28 12:32:43;;;;;;;1.10;0.82;;;27.00;46.80;;;;;;5050175;28;20036;-63
2021/07/28 12:35:21;;;;;;;0.70;0.60;;;27.00;46.70;;;;;;5049521;28;20045;-58
2021/07/28 12:38:03;;;;;;;0.63;0.60;;;27.00;46.70;;;;;;5052453;28;20759;-59
2021/07/28 12:40:29;;;;;;;0.98;0.80;;;27.00;46.60;;;;;;5051771;28;20029;-59
2021/07/28 12:42:55;;;;;;;0.90;0.70;;;27.00;46.60;;;;;;5053346;28;20033;-57
2021/07/28 12:45:23;;;;;;;1.05;0.55;;;27.00;46.60;;;;;;5047523;28;20040;-60
2021/07/28 12:47:49;;;;;;;1.98;0.85;;;27.00;46.50;;;;;;5048683;28;20365;-61
2021/07/28 12:50:15;;;;;;;0.70;0.70;;;27.00;46.50;;;;;;5049912;28;20456;-61
2021/07/28 12:52:43;;;;;;;1.30;0.85;;;27.00;46.50;;;;;;5037018;28;20041;-63
2021/07/28 12:55:10;;;;;;;0.82;0.77;;;27.00;46.40;;;;;;5055792;28;20051;-63
2021/07/28 12:57:36;;;;;;;2.13;0.82;;;27.00;46.30;;;;;;5055689;28;20025;-63